Time;durP1;ratioP1;P1;durP2;ratioP2;P2;SDS_P1;SDS_P2;PMS_P1;PMS_P2;Temp;Humidity;BMP_temperature;BMP_pressure;BME280_temperature;BME280_humidity;BME280_pressure;Samples;Min_cycle;Max_cycle;Signal;HPM_P1;HPM_P2
2021/10/13 00:01:13;;;;;;;6.65;5.10;;;;;;;5.86;100.00;96131.56;5052473;28;24566;-76
2021/10/13 00:03:40;;;;;;;6.15;5.10;;;;;;;5.87;100.00;96134.09;5052452;28;24800;-76
2021/10/13 00:06:06;;;;;;;5.97;5.35;;;;;;;5.94;100.00;96135.56;5052073;28;24431;-76
2021/10/13 00:08:33;;;;;;;6.10;5.38;;;;;;;5.94;100.00;96139.88;5052397;28;24856;-76
2021/10/13 00:10:59;;;;;;;6.07;5.57;;;;;;;5.96;100.00;96140.66;5052404;28;24431;-75
2021/10/13 00:13:26;;;;;;;6.85;5.57;;;;;;;5.93;100.00;96143.31;5052281;28;24431;-75
2021/10/13 00:15:53;;;;;;;6.00;5.40;;;;;;;6.01;100.00;96137.00;5051660;28;24805;-76
2021/10/13 00:18:20;;;;;;;7.57;5.70;;;;;;;5.99;100.00;96138.78;5052156;28;24971;-76
2021/10/13 00:20:47;;;;;;;6.80;5.93;;;;;;;5.89;100.00;96147.72;5052199;28;24431;-75
2021/10/13 00:23:13;;;;;;;6.05;5.28;;;;;;;5.96;100.00;96153.50;5052305;28;24415;-75
2021/10/13 00:25:40;;;;;;;5.72;5.20;;;;;;;6.04;100.00;96147.19;5051765;28;24821;-75
2021/10/13 00:28:06;;;;;;;5.93;5.00;;;;;;;6.07;100.00;96149.63;5051746;28;24458;-75
2021/10/13 00:30:33;;;;;;;6.63;4.70;;;;;;;6.01;100.00;96156.75;5052070;28;24426;-75
2021/10/13 00:33:01;;;;;;;5.30;4.78;;;;;;;6.14;100.00;96160.50;5052118;28;24426;-75
2021/10/13 00:35:27;;;;;;;7.00;5.53;;;;;;;6.15;100.00;96176.75;5051673;28;24825;-76
2021/10/13 00:37:54;;;;;;;5.45;4.93;;;;;;;6.23;100.00;96173.03;5053113;28;24976;-76
2021/10/13 00:40:21;;;;;;;5.27;4.77;;;;;;;6.46;100.00;96179.81;5054414;28;24419;-76
2021/10/13 00:42:47;;;;;;;6.80;5.10;;;;;;;6.63;100.00;96181.69;5052710;28;24792;-76
2021/10/13 00:45:14;;;;;;;6.70;4.77;;;;;;;6.89;100.00;96177.22;5052422;28;24820;-76
2021/10/13 00:47:40;;;;;;;6.25;5.00;;;;;;;6.79;100.00;96176.78;5051949;28;24454;-75
2021/10/13 00:50:11;;;;;;;7.00;4.72;;;;;;;6.93;100.00;96177.00;5051691;28;24430;-76
2021/10/13 00:52:40;;;;;;;5.60;5.00;;;;;;;6.69;100.00;96196.06;5051708;28;24447;-76
2021/10/13 00:55:08;;;;;;;4.88;4.38;;;;;;;6.61;100.00;96187.84;5051223;28;24456;-76
2021/10/13 00:57:34;;;;;;;5.72;4.45;;;;;;;6.56;100.00;96195.72;5051703;28;24457;-76
2021/10/13 01:00:01;;;;;;;5.77;4.40;;;;;;;6.48;100.00;96195.19;5051575;28;24514;-76
2021/10/13 01:02:32;;;;;;;6.03;4.50;;;;;;;6.29;100.00;96185.63;5051500;28;24427;-76
2021/10/13 01:05:20;;;;;;;5.85;4.55;;;;;;;6.25;100.00;96188.38;5051032;28;24472;-76
2021/10/13 01:07:57;;;;;;;6.18;4.72;;;;;;;6.22;100.00;96191.06;5050775;28;24451;-76
2021/10/13 01:10:37;;;;;;;6.80;4.95;;;;;;;6.20;100.00;96198.03;5051291;28;24438;-75
2021/10/13 01:13:10;;;;;;;6.28;4.90;;;;;;;6.06;100.00;96196.81;5051095;28;24968;-75
2021/10/13 01:15:44;;;;;;;9.27;4.80;;;;;;;5.86;100.00;96203.53;5050866;28;24415;-75
2021/10/13 01:18:15;;;;;;;5.15;4.57;;;;;;;5.76;100.00;96198.75;5050843;28;24434;-76
2021/10/13 01:21:06;;;;;;;6.10;4.60;;;;;;;5.64;100.00;96203.53;5051259;28;24836;-76
2021/10/13 01:24:10;;;;;;;5.25;4.70;;;;;;;5.63;100.00;96207.81;5051156;28;24423;-76
2021/10/13 01:26:46;;;;;;;5.75;4.53;;;;;;;5.42;100.00;96204.28;5050514;28;24430;-76
2021/10/13 01:29:18;;;;;;;5.20;4.50;;;;;;;5.35;100.00;96218.25;5050991;28;24506;-76
2021/10/13 01:31:53;;;;;;;5.18;4.63;;;;;;;5.39;100.00;96212.09;5050964;28;24473;-76
2021/10/13 01:34:23;;;;;;;7.68;5.00;;;;;;;5.57;100.00;96216.59;5050711;28;24476;-75
2021/10/13 01:36:55;;;;;;;5.13;4.57;;;;;;;5.46;100.00;96220.44;5050620;28;24412;-76
2021/10/13 01:39:22;;;;;;;5.03;4.53;;;;;;;5.42;100.00;96217.13;5050840;28;24485;-76
2021/10/13 01:41:51;;;;;;;5.53;4.28;;;;;;;5.55;100.00;96214.97;5050834;28;24424;-76
2021/10/13 01:44:20;;;;;;;4.35;3.78;;;;;;;5.65;100.00;96225.75;5050728;28;24430;-76
2021/10/13 01:46:48;;;;;;;5.00;4.38;;;;;;;5.62;100.00;96236.13;5050331;28;24419;-76
2021/10/13 01:49:15;;;;;;;7.63;4.55;;;;;;;5.53;100.00;96240.72;5050469;28;24447;-75
2021/10/13 01:51:43;;;;;;;6.18;4.68;;;;;;;5.49;100.00;96246.03;5050101;28;24983;-76
2021/10/13 01:54:12;;;;;;;4.47;4.07;;;;;;;5.37;100.00;96252.41;5050601;28;24419;-75
2021/10/13 01:56:41;;;;;;;16.70;4.80;;;;;;;5.27;100.00;96245.94;5050119;28;24493;-75
2021/10/13 01:59:15;;;;;;;30.55;4.45;;;;;;;5.28;100.00;96257.88;5049869;28;24777;-75
2021/10/13 02:01:45;;;;;;;79.28;6.25;;;;;;;5.01;100.00;96263.03;5050604;28;24415;-75
2021/10/13 02:04:15;;;;;;;89.32;5.05;;;;;;;4.85;100.00;96264.41;5049854;28;24952;-75
2021/10/13 02:06:43;;;;;;;89.73;5.23;;;;;;;4.78;100.00;96268.06;5050136;28;24786;-76
2021/10/13 02:09:11;;;;;;;23.63;3.83;;;;;;;4.65;100.00;96265.06;5050343;28;24626;-75
2021/10/13 02:11:37;;;;;;;34.90;4.95;;;;;;;4.57;100.00;96257.59;5050369;28;24419;-75
2021/10/13 02:14:06;;;;;;;29.73;4.47;;;;;;;4.56;100.00;96265.34;5050385;28;24426;-75
2021/10/13 02:16:34;;;;;;;5.38;4.85;;;;;;;4.66;100.00;96273.59;5049798;28;24434;-75
2021/10/13 02:19:03;;;;;;;7.13;5.00;;;;;;;4.66;100.00;96268.47;5050302;28;24824;-75
2021/10/13 02:21:32;;;;;;;20.65;5.40;;;;;;;4.63;100.00;96269.38;5050408;28;24454;-76
2021/10/13 02:23:59;;;;;;;37.30;5.50;;;;;;;4.53;100.00;96270.59;5050401;28;24423;-75
2021/10/13 02:26:39;;;;;;;39.55;6.10;;;;;;;4.44;100.00;96269.13;5049707;28;24435;-76
2021/10/13 02:29:12;;;;;;;27.73;4.50;;;;;;;4.41;100.00;96278.63;5049954;28;24450;-75
2021/10/13 02:31:39;;;;;;;29.23;4.93;;;;;;;4.48;100.00;96286.09;5050224;28;24415;-75
2021/10/13 02:34:07;;;;;;;7.97;5.32;;;;;;;4.57;100.00;96290.97;5050436;28;24900;-75
2021/10/13 02:36:33;;;;;;;5.30;4.80;;;;;;;4.69;100.00;96288.91;5049830;28;24824;-75
2021/10/13 02:39:00;;;;;;;7.97;5.63;;;;;;;4.66;100.00;96292.38;5050077;28;24481;-76
2021/10/13 02:41:27;;;;;;;7.88;5.35;;;;;;;4.86;100.00;96286.66;5050176;28;24465;-76
2021/10/13 02:43:53;;;;;;;5.63;5.00;;;;;;;4.83;100.00;96289.31;5050211;28;24429;-75
2021/10/13 02:46:26;;;;;;;6.45;5.10;;;;;;;4.88;100.00;96295.13;5049969;28;24832;-75
2021/10/13 02:49:00;;;;;;;6.32;4.80;;;;;;;5.02;100.00;96292.13;5050070;28;24446;-76
2021/10/13 02:51:36;;;;;;;4.95;4.45;;;;;;;5.13;100.00;96299.47;5049966;28;24435;-76
2021/10/13 02:54:11;;;;;;;7.57;4.88;;;;;;;5.03;100.00;96310.03;5049836;28;25026;-75
2021/10/13 02:56:41;;;;;;;5.78;5.15;;;;;;;4.98;100.00;96311.91;5049794;28;24430;-75
2021/10/13 02:59:11;;;;;;;8.45;5.90;;;;;;;4.95;100.00;96304.31;5049959;28;24427;-75
2021/10/13 03:01:40;;;;;;;6.05;5.15;;;;;;;5.00;100.00;96299.00;5049949;28;24523;-75
2021/10/13 03:04:11;;;;;;;5.18;4.65;;;;;;;5.02;100.00;96299.81;5050510;28;24419;-75
2021/10/13 03:06:44;;;;;;;5.22;4.72;;;;;;;5.07;100.00;96301.31;5053130;28;24445;-76
2021/10/13 03:09:11;;;;;;;4.90;4.40;;;;;;;5.23;100.00;96304.25;5053624;28;24446;-76
2021/10/13 03:11:40;;;;;;;6.70;5.68;;;;;;;5.35;100.00;96308.13;5053648;28;24422;-75
2021/10/13 03:14:08;;;;;;;5.85;4.78;;;;;;;5.40;100.00;96297.69;5053657;28;24438;-75
2021/10/13 03:16:35;;;;;;;7.72;6.20;;;;;;;5.26;100.00;96300.72;5053026;28;24512;-75
2021/10/13 03:19:03;;;;;;;6.20;5.60;;;;;;;5.17;100.00;96301.03;5053103;28;24518;-75
2021/10/13 03:21:32;;;;;;;9.00;5.50;;;;;;;5.27;100.00;96294.72;5053579;28;24473;-75
2021/10/13 03:24:00;;;;;;;7.88;5.70;;;;;;;5.23;100.00;96300.84;5053457;28;24465;-75
2021/10/13 03:26:27;;;;;;;10.30;5.85;;;;;;;5.16;100.00;96299.38;5052960;28;24427;-75
2021/10/13 03:28:53;;;;;;;9.18;6.50;;;;;;;4.99;100.00;96297.34;5053171;28;24435;-75
2021/10/13 03:31:19;;;;;;;5.95;5.35;;;;;;;5.08;100.00;96308.16;5053136;28;24485;-76
2021/10/13 03:33:49;;;;;;;9.35;5.63;;;;;;;5.08;100.00;96315.03;5052877;28;24824;-75
2021/10/13 03:36:16;;;;;;;8.32;6.13;;;;;;;5.08;100.00;96312.47;5052573;28;25028;-75
2021/10/13 03:38:42;;;;;;;6.47;5.60;;;;;;;5.09;100.00;96309.00;5053398;28;24422;-75
2021/10/13 03:41:10;;;;;;;6.23;5.60;;;;;;;5.04;100.00;96323.69;5055072;28;24894;-75
2021/10/13 03:43:46;;;;;;;7.78;5.95;;;;;;;4.99;100.00;96323.84;5054727;28;24490;-76
2021/10/13 03:46:17;;;;;;;8.05;6.38;;;;;;;5.06;100.00;96332.19;5053116;28;24431;-76
2021/10/13 03:48:45;;;;;;;6.13;5.53;;;;;;;5.07;100.00;96326.16;5053769;28;24450;-76
2021/10/13 03:51:12;;;;;;;11.48;6.05;;;;;;;5.13;100.00;96327.72;5052728;28;24427;-75
2021/10/13 03:53:38;;;;;;;6.10;5.50;;;;;;;5.18;100.00;96329.22;5052804;28;24419;-76
2021/10/13 03:56:04;;;;;;;8.50;5.60;;;;;;;5.14;100.00;96332.78;5052381;28;24794;-75
2021/10/13 03:58:32;;;;;;;7.35;5.72;;;;;;;5.24;100.00;96330.78;5052674;28;24427;-75
2021/10/13 04:00:59;;;;;;;6.97;5.50;;;;;;;5.34;100.00;96333.00;5052412;28;24432;-75
2021/10/13 04:03:25;;;;;;;6.82;5.05;;;;;;;5.37;100.00;96329.47;5052601;28;24459;-75
2021/10/13 04:05:51;;;;;;;7.70;4.93;;;;;;;5.43;100.00;96334.41;5052259;28;24477;-75
2021/10/13 04:08:18;;;;;;;5.18;4.65;;;;;;;5.42;100.00;96339.59;5052469;28;24423;-75
2021/10/13 04:10:44;;;;;;;6.43;4.85;;;;;;;5.45;100.00;96344.59;5052407;28;24505;-76
2021/10/13 04:13:11;;;;;;;6.85;5.07;;;;;;;5.23;100.00;96339.38;5052278;28;24484;-75
2021/10/13 04:15:39;;;;;;;6.10;5.00;;;;;;;5.33;100.00;96354.41;5051517;28;24802;-76
2021/10/13 04:18:06;;;;;;;7.93;6.13;;;;;;;5.18;100.00;96366.91;5052022;28;24488;-76
2021/10/13 04:20:33;;;;;;;7.75;5.13;;;;;;;5.10;100.00;96369.72;5052176;28;24522;-75
2021/10/13 04:22:59;;;;;;;6.10;4.82;;;;;;;5.02;100.00;96362.25;5052122;28;24949;-76
2021/10/13 04:25:26;;;;;;;6.87;5.33;;;;;;;5.09;100.00;96361.19;5051807;28;24829;-76
2021/10/13 04:27:52;;;;;;;7.35;5.05;;;;;;;5.12;100.00;96364.53;5051893;28;24485;-76
2021/10/13 04:30:19;;;;;;;5.85;5.00;;;;;;;5.07;100.00;96369.81;5052015;28;24443;-76
2021/10/13 04:32:46;;;;;;;6.63;4.95;;;;;;;5.14;100.00;96373.88;5051937;28;24419;-76
2021/10/13 04:35:13;;;;;;;9.63;5.28;;;;;;;5.23;100.00;96372.75;5051754;28;24469;-76
2021/10/13 04:37:40;;;;;;;8.90;5.40;;;;;;;5.35;100.00;96374.91;5051569;28;24484;-76
2021/10/13 04:40:07;;;;;;;7.00;4.80;;;;;;;5.46;100.00;96372.84;5051777;28;24435;-76
2021/10/13 04:42:34;;;;;;;5.25;4.75;;;;;;;5.70;100.00;96378.88;5052092;28;24481;-76
2021/10/13 04:45:01;;;;;;;5.10;4.70;;;;;;;5.75;100.00;96379.56;5051495;28;24427;-76
2021/10/13 04:47:27;;;;;;;5.03;4.50;;;;;;;5.79;100.00;96388.03;5051941;28;24416;-75
2021/10/13 04:49:55;;;;;;;7.50;5.90;;;;;;;5.69;100.00;96386.66;5051582;28;24431;-76
2021/10/13 04:52:21;;;;;;;5.77;5.17;;;;;;;5.66;100.00;96384.19;5051644;28;24805;-76
2021/10/13 04:54:48;;;;;;;5.63;4.70;;;;;;;5.67;100.00;96383.28;5050252;28;24841;-76
2021/10/13 04:57:14;;;;;;;6.30;5.27;;;;;;;5.68;100.00;96384.97;5049393;28;24447;-74
2021/10/13 04:59:41;;;;;;;7.78;5.50;;;;;;;5.56;100.00;96384.50;5050078;28;24434;-75
2021/10/13 05:02:07;;;;;;;7.72;5.82;;;;;;;5.38;100.00;96392.81;5051260;28;24438;-75
2021/10/13 05:04:34;;;;;;;7.70;5.78;;;;;;;5.24;100.00;96389.84;5051148;28;24415;-77
2021/10/13 05:07:02;;;;;;;6.57;5.72;;;;;;;5.25;100.00;96404.34;5051273;28;24880;-76
2021/10/13 05:09:28;;;;;;;10.15;5.53;;;;;;;5.30;100.00;96387.06;5050797;28;24446;-77
2021/10/13 05:11:54;;;;;;;6.68;5.53;;;;;;;5.44;100.00;96400.28;5051320;28;24422;-77
2021/10/13 05:14:21;;;;;;;6.03;5.43;;;;;;;5.54;100.00;96393.97;5051111;28;25030;-77
2021/10/13 05:16:47;;;;;;;5.38;4.88;;;;;;;5.61;100.00;96398.91;5050894;28;24411;-76
2021/10/13 05:19:14;;;;;;;4.68;4.28;;;;;;;5.68;100.00;96401.22;5051285;28;24415;-77
2021/10/13 05:21:40;;;;;;;5.53;4.80;;;;;;;5.76;100.00;96391.53;5050923;28;24426;-77
2021/10/13 05:24:09;;;;;;;5.25;4.75;;;;;;;5.81;100.00;96397.34;5050409;28;24431;-77
2021/10/13 05:26:36;;;;;;;4.78;4.38;;;;;;;5.79;100.00;96396.56;5050481;28;24427;-77
2021/10/13 05:29:03;;;;;;;5.38;4.88;;;;;;;5.80;100.00;96398.25;5050601;28;24836;-77
2021/10/13 05:31:29;;;;;;;6.45;5.63;;;;;;;5.77;100.00;96400.91;5051070;28;24477;-77
2021/10/13 05:33:56;;;;;;;6.93;5.95;;;;;;;5.69;100.00;96402.06;5050988;28;24480;-77
2021/10/13 05:36:22;;;;;;;6.95;5.47;;;;;;;5.71;100.00;96402.84;5050525;28;24446;-76
2021/10/13 05:38:49;;;;;;;7.35;5.65;;;;;;;5.72;100.00;96413.09;5050778;28;24426;-76
2021/10/13 05:41:17;;;;;;;6.93;5.75;;;;;;;5.65;100.00;96411.59;5051369;28;24427;-77
2021/10/13 05:43:43;;;;;;;6.72;5.43;;;;;;;5.63;100.00;96418.50;5050909;28;24979;-77
2021/10/13 05:46:09;;;;;;;10.00;5.60;;;;;;;5.39;100.00;96409.88;5050477;28;24476;-77
2021/10/13 05:48:36;;;;;;;21.42;5.22;;;;;;;5.15;100.00;96426.06;5050776;28;24415;-77
2021/10/13 05:51:02;;;;;;;19.70;4.97;;;;;;;5.12;100.00;96421.88;5050411;28;24439;-77
2021/10/13 05:53:29;;;;;;;4.53;4.13;;;;;;;5.26;100.00;96426.56;5050795;28;24411;-77
2021/10/13 05:55:56;;;;;;;5.55;4.50;;;;;;;5.34;100.00;96422.88;5050853;28;24466;-77
2021/10/13 05:58:25;;;;;;;5.15;4.50;;;;;;;5.39;100.00;96424.47;5052457;28;24841;-77
2021/10/13 06:00:53;;;;;;;5.07;4.68;;;;;;;5.38;100.00;96435.59;5051001;28;24427;-77
2021/10/13 06:03:20;;;;;;;11.98;4.97;;;;;;;5.26;100.00;96444.53;5050728;28;24428;-77
2021/10/13 06:05:46;;;;;;;5.53;4.97;;;;;;;5.10;100.00;96452.72;5050389;28;24822;-73
2021/10/13 06:08:13;;;;;;;5.90;5.30;;;;;;;5.08;100.00;96466.50;5050787;28;24419;-75
2021/10/13 06:10:40;;;;;;;5.40;4.90;;;;;;;5.04;100.00;96467.47;5050585;28;24483;-75
2021/10/13 06:13:06;;;;;;;5.75;5.25;;;;;;;5.01;100.00;96470.97;5050378;28;24450;-75
2021/10/13 06:15:35;;;;;;;6.43;5.83;;;;;;;4.99;100.00;96471.91;5050398;28;24492;-75
2021/10/13 06:18:02;;;;;;;6.97;6.30;;;;;;;5.01;100.00;96472.72;5050544;28;24435;-74
2021/10/13 06:20:29;;;;;;;7.83;6.67;;;;;;;5.06;100.00;96476.81;5050249;28;24506;-75
2021/10/13 06:22:56;;;;;;;7.43;6.63;;;;;;;5.16;100.00;96476.56;5050573;28;24455;-75
2021/10/13 06:25:22;;;;;;;9.27;6.28;;;;;;;5.34;100.00;96471.69;5049865;28;24442;-75
2021/10/13 06:27:49;;;;;;;6.10;5.53;;;;;;;5.46;100.00;96478.16;5050337;28;24443;-75
2021/10/13 06:30:15;;;;;;;7.68;6.32;;;;;;;5.48;100.00;96490.94;5050151;28;24554;-75
2021/10/13 06:32:43;;;;;;;9.70;6.60;;;;;;;5.42;100.00;96492.00;5049904;28;24438;-75
2021/10/13 06:35:09;;;;;;;13.10;7.60;;;;;;;5.36;100.00;96499.03;5049867;28;24951;-75
2021/10/13 06:37:36;;;;;;;8.73;6.80;;;;;;;5.39;100.00;96506.66;5049955;28;25003;-75
2021/10/13 06:40:03;;;;;;;9.88;6.07;;;;;;;5.41;100.00;96507.44;5054220;28;24411;-75
2021/10/13 06:42:29;;;;;;;7.32;6.03;;;;;;;5.44;100.00;96515.91;5056212;28;24427;-75
2021/10/13 06:44:56;;;;;;;10.57;6.38;;;;;;;5.38;100.00;96518.66;5059325;28;24419;-75
2021/10/13 06:47:22;;;;;;;8.70;6.00;;;;;;;5.52;100.00;96533.66;5057242;28;24465;-76
2021/10/13 06:49:50;;;;;;;9.63;6.32;;;;;;;5.58;100.00;96524.03;5054928;28;24465;-76
2021/10/13 06:52:16;;;;;;;6.45;5.85;;;;;;;5.70;100.00;96527.09;5054088;28;24419;-75
2021/10/13 06:54:43;;;;;;;7.78;6.57;;;;;;;5.76;100.00;96520.03;5053611;28;24872;-75
2021/10/13 06:57:09;;;;;;;6.78;6.07;;;;;;;5.86;100.00;96520.59;5054181;28;24427;-76
2021/10/13 06:59:36;;;;;;;14.13;6.68;;;;;;;6.02;100.00;96524.38;5053890;28;24412;-76
2021/10/13 07:02:02;;;;;;;11.50;8.63;;;;;;;6.03;100.00;96527.78;5054019;28;24494;-75
2021/10/13 07:04:28;;;;;;;17.20;11.57;;;;;;;5.99;100.00;96533.91;5053824;28;24434;-75
2021/10/13 07:06:56;;;;;;;15.10;11.50;;;;;;;6.11;100.00;96528.38;5053666;28;24419;-75
2021/10/13 07:09:23;;;;;;;12.57;11.27;;;;;;;6.11;100.00;96528.38;5053874;28;24424;-75
2021/10/13 07:11:49;;;;;;;13.15;11.23;;;;;;;6.28;100.00;96532.97;5054075;28;24817;-75
2021/10/13 07:14:17;;;;;;;10.63;9.20;;;;;;;6.35;100.00;96524.16;5053499;28;24419;-75
2021/10/13 07:16:45;;;;;;;11.55;8.23;;;;;;;6.46;100.00;96518.63;5052994;28;24983;-75
2021/10/13 07:19:11;;;;;;;12.00;7.95;;;;;;;6.47;100.00;96517.72;5053489;28;24431;-75
2021/10/13 07:21:38;;;;;;;8.57;7.18;;;;;;;6.67;100.00;96523.00;5053981;28;24419;-76
2021/10/13 07:24:06;;;;;;;8.43;6.50;;;;;;;6.46;100.00;96526.34;5053643;28;24485;-77
2021/10/13 07:26:34;;;;;;;10.52;6.68;;;;;;;6.62;100.00;96529.22;5053254;28;24415;-77
2021/10/13 07:29:01;;;;;;;8.30;6.47;;;;;;;6.66;100.00;96526.50;5053131;28;24797;-77
2021/10/13 07:31:28;;;;;;;10.45;6.13;;;;;;;6.87;100.00;96524.06;5053651;28;24530;-77
2021/10/13 07:33:55;;;;;;;8.63;6.43;;;;;;;6.70;100.00;96527.22;5053388;28;24522;-76
2021/10/13 07:36:22;;;;;;;7.57;6.05;;;;;;;6.75;100.00;96522.78;5053021;28;24662;-76
2021/10/13 07:38:49;;;;;;;8.50;6.30;;;;;;;6.98;100.00;96527.91;5046955;28;24435;-77
2021/10/13 07:41:17;;;;;;;11.50;8.23;;;;;;;7.03;100.00;96525.16;5052597;28;24434;-77
2021/10/13 07:43:43;;;;;;;14.15;8.75;;;;;;;6.91;100.00;96526.47;5044582;28;24442;-77
2021/10/13 07:46:12;;;;;;;11.00;7.93;;;;;;;6.97;100.00;96535.69;5052460;28;24442;-76
2021/10/13 07:48:38;;;;;;;8.32;7.25;;;;;;;7.14;100.00;96530.75;5052727;28;24462;-76
2021/10/13 07:51:05;;;;;;;13.00;8.55;;;;;;;6.93;100.00;96540.09;5052057;28;24451;-75
2021/10/13 07:53:31;;;;;;;11.63;8.18;;;;;;;6.84;100.00;96543.03;5050013;28;24432;-76
2021/10/13 07:55:58;;;;;;;10.20;7.95;;;;;;;6.68;100.00;96544.47;5049629;28;24435;-75
2021/10/13 07:58:26;;;;;;;9.30;7.43;;;;;;;6.96;100.00;96547.72;5052078;28;24431;-76
2021/10/13 08:00:52;;;;;;;11.13;8.23;;;;;;;7.01;100.00;96543.25;5052763;28;24798;-75
2021/10/13 08:03:18;;;;;;;10.87;7.87;;;;;;;7.18;100.00;96547.78;5052200;28;24529;-75
2021/10/13 08:05:45;;;;;;;11.90;8.30;;;;;;;7.40;100.00;96550.41;5052356;28;24469;-75
2021/10/13 08:08:11;;;;;;;10.63;8.18;;;;;;;7.71;100.00;96550.09;5052181;28;24431;-75
2021/10/13 08:10:38;;;;;;;9.77;8.10;;;;;;;7.73;100.00;96557.75;5052057;28;24501;-75
2021/10/13 08:13:04;;;;;;;10.20;7.80;;;;;;;7.94;100.00;96554.31;5051455;28;20806;-76
2021/10/13 08:15:32;;;;;;;26.98;8.18;;;;;;;7.83;100.00;96555.66;5052054;28;24485;-75
2021/10/13 08:17:59;;;;;;;10.93;7.45;;;;;;;7.88;100.00;96557.16;5051272;28;24984;-75
2021/10/13 08:20:25;;;;;;;10.63;7.85;;;;;;;8.04;100.00;96554.78;5046240;28;24431;-77
2021/10/13 08:22:52;;;;;;;8.73;6.70;;;;;;;7.80;100.00;96558.34;5052117;28;24435;-77
2021/10/13 08:25:20;;;;;;;9.88;7.03;;;;;;;7.74;100.00;96567.16;5051434;28;24431;-77
2021/10/13 08:27:47;;;;;;;8.40;6.73;;;;;;;7.69;100.00;96563.94;5051849;28;20795;-76
2021/10/13 08:30:13;;;;;;;15.90;7.35;;;;;;;7.54;100.00;96567.94;5052030;28;21122;-76
2021/10/13 08:32:41;;;;;;;11.10;6.60;;;;;;;7.29;100.00;96578.31;5051766;28;25006;-76
2021/10/13 08:35:08;;;;;;;9.55;6.85;;;;;;;7.36;100.00;96582.34;5051492;28;25018;-76
2021/10/13 08:37:36;;;;;;;8.73;6.60;;;;;;;7.41;100.00;96574.44;5051801;28;24522;-76
2021/10/13 08:40:02;;;;;;;11.73;7.30;;;;;;;7.33;100.00;96574.72;5051485;28;24438;-77
2021/10/13 08:42:29;;;;;;;9.93;7.25;;;;;;;7.16;100.00;96571.94;5052042;28;24438;-77
2021/10/13 08:44:57;;;;;;;11.15;7.75;;;;;;;7.14;100.00;96576.28;5051262;28;24944;-76
2021/10/13 08:47:24;;;;;;;10.40;7.50;;;;;;;6.97;100.00;96571.75;5051994;28;24451;-76
2021/10/13 08:49:53;;;;;;;11.73;6.97;;;;;;;7.00;100.00;96572.47;5051680;28;24434;-76
2021/10/13 08:52:19;;;;;;;10.13;7.47;;;;;;;6.98;100.00;96579.44;5051244;28;24526;-76
2021/10/13 08:54:46;;;;;;;10.65;6.63;;;;;;;7.05;100.00;96577.47;5051279;28;24435;-76
2021/10/13 08:57:17;;;;;;;12.25;8.52;;;;;;;7.16;100.00;96574.53;5051255;28;25022;-76
2021/10/13 08:59:46;;;;;;;10.50;6.97;;;;;;;7.49;100.00;96573.25;5051507;28;24962;-75
2021/10/13 09:02:13;;;;;;;10.10;6.77;;;;;;;7.40;100.00;96567.59;5050397;28;24473;-75
2021/10/13 09:04:39;;;;;;;9.68;5.80;;;;;;;7.29;100.00;96570.56;5052865;28;24990;-76
2021/10/13 09:07:07;;;;;;;8.48;5.30;;;;;;;7.56;100.00;96576.44;5060471;28;24443;-76
2021/10/13 09:09:34;;;;;;;10.52;6.32;;;;;;;7.83;100.00;96579.69;5060559;28;24438;-77
2021/10/13 09:12:00;;;;;;;6.40;5.10;;;;;;;8.09;100.00;96573.50;5061375;28;24457;-76
2021/10/13 09:14:29;;;;;;;10.40;5.47;;;;;;;7.80;100.00;96584.97;5060551;28;24427;-76
2021/10/13 09:16:59;;;;;;;9.70;5.33;;;;;;;7.91;100.00;96587.97;5059515;28;24493;-76
2021/10/13 09:19:28;;;;;;;10.50;4.88;;;;;;;7.97;99.98;96590.31;5060350;28;24435;-76
2021/10/13 09:21:56;;;;;;;7.22;4.47;;;;;;;7.97;100.00;96587.75;5064420;28;24964;-77
2021/10/13 09:24:26;;;;;;;6.03;4.28;;;;;;;8.18;100.00;96592.94;5066410;28;24431;-76
2021/10/13 09:26:53;;;;;;;7.93;4.20;;;;;;;8.30;100.00;96589.84;5050061;28;24439;-76
2021/10/13 09:29:19;;;;;;;6.03;3.70;;;;;;;8.11;100.00;96586.34;5050855;28;24459;-76
2021/10/13 09:31:54;;;;;;;11.40;4.15;;;;;;;8.32;100.00;96598.38;5050667;28;24450;-76
2021/10/13 09:34:21;;;;;;;7.43;3.35;;;;;;;8.18;99.76;96598.09;5050609;28;24431;-76
2021/10/13 09:36:58;;;;;;;5.93;2.88;;;;;;;8.33;100.00;96596.63;5050616;28;24408;-76
2021/10/13 09:39:28;;;;;;;3.97;2.42;;;;;;;8.88;95.70;96599.53;5050862;28;24538;-76
2021/10/13 09:41:57;;;;;;;6.75;2.50;;;;;;;8.64;95.85;96596.22;5050803;28;20833;-77
2021/10/13 09:44:24;;;;;;;8.13;2.83;;;;;;;8.62;98.68;96585.16;5050186;28;24438;-76
2021/10/13 09:46:51;;;;;;;6.78;3.30;;;;;;;8.96;98.05;96597.47;5055870;28;24497;-76
2021/10/13 09:49:27;;;;;;;6.68;3.30;;;;;;;9.50;99.42;96585.59;5061435;28;24445;-76
2021/10/13 09:52:05;;;;;;;7.50;2.60;;;;;;;9.10;89.49;96592.53;5059261;28;24443;-76
2021/10/13 09:54:33;;;;;;;6.15;2.70;;;;;;;9.28;88.28;96592.63;5053483;28;24431;-76
2021/10/13 09:56:59;;;;;;;6.18;2.30;;;;;;;9.48;84.44;96578.81;5051413;28;24954;-76
2021/10/13 09:59:26;;;;;;;5.95;2.22;;;;;;;9.17;84.40;96591.38;5043948;28;24435;-76
2021/10/13 10:01:55;;;;;;;5.97;1.87;;;;;;;9.31;88.44;96593.34;5043592;28;24641;-75
2021/10/13 10:04:25;;;;;;;4.40;1.40;;;;;;;8.90;82.92;96592.56;5049661;28;20782;-76
2021/10/13 10:06:55;;;;;;;4.70;1.80;;;;;;;8.53;89.90;96591.53;5050282;28;21282;-75
2021/10/13 10:09:23;;;;;;;3.80;1.70;;;;;;;8.27;94.06;96595.16;5050489;28;20724;-76
2021/10/13 10:12:03;;;;;;;4.47;1.75;;;;;;;8.38;94.64;96592.16;5050796;28;20775;-76
2021/10/13 10:14:43;;;;;;;4.25;1.55;;;;;;;8.15;96.68;96590.47;5055946;28;20672;-75
2021/10/13 10:17:10;;;;;;;5.18;1.83;;;;;;;8.22;94.09;96591.91;5057268;28;20706;-76
2021/10/13 10:19:42;;;;;;;6.70;1.95;;;;;;;8.09;100.00;96591.56;5057163;28;20750;-76
2021/10/13 10:22:11;;;;;;;6.43;2.13;;;;;;;7.75;100.00;96597.22;5056832;28;24420;-76
2021/10/13 10:24:39;;;;;;;4.80;1.85;;;;;;;7.95;100.00;96588.69;5056676;28;24533;-76
2021/10/13 10:27:31;;;;;;;5.78;2.00;;;;;;;7.92;97.34;96587.06;5044289;28;24464;-76
2021/10/13 10:30:19;;;;;;;4.47;1.60;;;;;;;8.30;99.05;96589.03;5037200;28;24434;-77
2021/10/13 10:32:47;;;;;;;3.65;1.42;;;;;;;8.47;90.36;96590.03;5036951;28;24520;-77
2021/10/13 10:35:16;;;;;;;2.15;0.85;;;;;;;8.85;85.08;96590.16;5036930;28;24486;-76
2021/10/13 10:37:44;;;;;;;3.28;1.17;;;;;;;9.21;86.82;96595.50;5036831;28;24988;-77
2021/10/13 10:40:20;;;;;;;5.68;1.10;;;;;;;8.98;83.52;96594.84;5049445;28;24477;-77
2021/10/13 10:43:00;;;;;;;4.15;1.50;;;;;;;8.80;85.49;96597.28;5056754;28;24426;-76
2021/10/13 10:45:29;;;;;;;3.42;1.35;;;;;;;8.62;87.88;96603.22;5057051;28;24419;-74
2021/10/13 10:48:05;;;;;;;3.75;1.42;;;;;;;8.76;90.08;96600.91;5056751;28;24984;-76
2021/10/13 10:50:34;;;;;;;6.32;1.40;;;;;;;8.81;89.59;96600.72;5056985;28;24498;-75
2021/10/13 10:53:30;;;;;;;6.85;1.40;;;;;;;8.86;85.56;96597.03;5056782;28;24426;-75
2021/10/13 10:56:00;;;;;;;3.15;0.88;;;;;;;9.06;81.70;96600.50;5056174;28;24458;-75
2021/10/13 10:58:30;;;;;;;2.15;0.80;;;;;;;8.98;76.28;96600.84;5057068;28;24414;-76
2021/10/13 11:01:15;;;;;;;2.47;1.00;;;;;;;9.00;81.37;96598.16;5057338;28;20796;-75
2021/10/13 11:03:43;;;;;;;2.28;0.80;;;;;;;8.56;86.85;96598.31;5056824;28;20724;-76
2021/10/13 11:06:15;;;;;;;1.85;0.80;;;;;;;8.24;92.52;96605.59;5056664;28;20805;-75
2021/10/13 11:08:56;;;;;;;2.10;0.90;;;;;;;7.88;94.41;96608.72;5056841;28;24423;-76
2021/10/13 11:11:24;;;;;;;1.40;0.73;;;;;;;7.70;96.17;96605.09;5056305;28;24454;-76
2021/10/13 11:14:03;;;;;;;1.92;0.68;;;;;;;7.54;96.70;96616.91;5057055;28;24442;-76
2021/10/13 11:16:30;;;;;;;2.85;1.00;;;;;;;7.59;95.44;96609.00;5056486;28;24431;-76
2021/10/13 11:19:07;;;;;;;2.35;0.70;;;;;;;7.76;100.00;96604.03;5056557;28;24485;-76
2021/10/13 11:21:33;;;;;;;3.33;1.05;;;;;;;7.86;97.61;96605.38;5056383;28;24992;-76
2021/10/13 11:24:00;;;;;;;2.83;0.90;;;;;;;7.90;100.00;96606.94;5056356;28;24423;-76
2021/10/13 11:26:26;;;;;;;2.50;1.00;;;;;;;7.97;100.00;96608.38;5051952;28;24427;-76
2021/10/13 11:28:53;;;;;;;2.35;1.00;;;;;;;8.08;100.00;96612.25;5053433;28;24779;-76
2021/10/13 11:31:22;;;;;;;2.93;1.00;;;;;;;8.27;100.00;96607.19;5053085;28;24495;-76
2021/10/13 11:33:49;;;;;;;2.80;0.90;;;;;;;8.35;96.73;96600.84;5053571;28;24421;-76
2021/10/13 11:36:15;;;;;;;2.17;0.70;;;;;;;8.26;95.75;96601.22;5053028;28;24423;-77
2021/10/13 11:38:42;;;;;;;2.33;1.27;;;;;;;8.52;94.95;96596.75;5053041;28;24992;-76